Time;durP1;ratioP1;P1;durP2;ratioP2;P2;SDS_P1;SDS_P2;PMS_P1;PMS_P2;Temp;Humidity;BMP_temperature;BMP_pressure;BME280_temperature;BME280_humidity;BME280_pressure;Samples;Min_cycle;Max_cycle;Signal;HPM_P1;HPM_P2
2021/05/20 00:00:06;;;;;;;15.20;10.30;;;;;;;10.60;76.84;100407.08;1647826;84;25882;-74
2021/05/20 00:02:35;;;;;;;12.68;9.68;;;;;;;10.58;76.96;100411.80;1666219;84;26479;-75
2021/05/20 00:05:04;;;;;;;12.98;9.15;;;;;;;10.54;77.04;100405.67;1653267;83;25680;-75
2021/05/20 00:07:31;;;;;;;14.55;10.53;;;;;;;10.53;77.07;100408.02;1683099;83;27481;-75
2021/05/20 00:09:58;;;;;;;14.55;10.43;;;;;;;;;;1654346;85;25759;-76
2021/05/20 00:12:25;;;;;;;15.45;10.30;;;;;;;10.48;77.11;100415.28;1649936;83;25728;-76
2021/05/20 00:14:52;;;;;;;15.48;11.60;;;;;;;10.46;77.20;100419.16;1631700;85;26489;-78
2021/05/20 00:17:18;;;;;;;13.45;10.75;;;;;;;10.45;77.35;100414.34;1686892;84;25765;-75
2021/05/20 00:19:45;;;;;;;17.15;12.65;;;;;;;10.45;77.41;100417.02;1651966;85;28059;-75
2021/05/20 00:22:12;;;;;;;16.35;11.80;;;;;;;10.44;77.49;100420.70;1622862;85;26475;-75
2021/05/20 00:24:39;;;;;;;16.12;12.30;;;;;;;10.45;77.66;100418.86;1650316;85;25741;-75
2021/05/20 00:27:07;;;;;;;17.30;11.80;;;;;;;10.45;77.84;100423.72;1683944;84;25622;-76
2021/05/20 00:29:34;;;;;;;17.00;11.83;;;;;;;10.46;77.99;100422.68;1608837;85;25688;-75
2021/05/20 00:32:00;;;;;;;17.27;11.53;;;;;;;10.46;77.84;100427.20;1612269;85;27316;-76
2021/05/20 00:34:27;;;;;;;18.42;12.20;;;;;;;10.43;77.91;100424.42;1670711;85;25765;-75
2021/05/20 00:36:55;;;;;;;15.18;11.73;;;;;;;10.43;77.97;100427.59;1692748;84;26349;-77
2021/05/20 00:39:22;;;;;;;18.25;11.50;;;;;;;10.46;78.15;100429.38;1641273;84;26283;-75
2021/05/20 00:41:49;;;;;;;14.70;11.43;;;;;;;10.48;78.24;100430.52;1590266;85;25817;-75
2021/05/20 00:44:16;;;;;;;16.42;11.45;;;;;;;10.50;78.59;100425.83;1686948;84;27337;-75
2021/05/20 00:46:43;;;;;;;13.90;11.10;;;;;;;10.51;78.48;100426.13;1660292;84;25796;-76
2021/05/20 00:49:10;;;;;;;15.10;10.35;;;;;;;10.52;78.51;100420.57;1629360;84;26344;-76
2021/05/20 00:51:40;;;;;;;16.90;11.50;;;;;;;10.53;78.54;100424.92;1618232;84;25817;-76
2021/05/20 00:54:09;;;;;;;15.00;11.15;;;;;;;10.56;78.73;100423.72;1675351;83;25792;-76
2021/05/20 00:56:39;;;;;;;13.38;9.78;;;;;;;10.57;78.66;100427.53;1691527;84;27392;-75
2021/05/20 00:59:06;;;;;;;11.55;9.43;;;;;;;10.56;78.69;100416.48;1645474;84;25294;-75
2021/05/20 01:01:34;;;;;;;13.65;9.10;;;;;;;10.57;78.82;100420.00;1646909;84;25718;-74
2021/05/20 01:04:01;;;;;;;14.40;10.28;;;;;;;10.57;78.75;100422.18;1647845;85;25807;-74
2021/05/20 01:06:28;;;;;;;12.95;10.58;;;;;;;10.57;78.72;100419.50;1672685;85;25850;-76
2021/05/20 01:08:58;;;;;;;11.85;9.43;;;;;;;10.57;78.81;100423.52;1642204;85;27471;-75
2021/05/20 01:11:25;;;;;;;14.58;10.00;;;;;;;10.57;78.59;100424.02;1611353;85;25592;-76
2021/05/20 01:13:52;;;;;;;15.85;9.50;;;;;;;10.54;78.68;100426.56;1650639;84;25715;-75
2021/05/20 01:16:19;;;;;;;12.18;9.15;;;;;;;10.52;78.56;100424.59;1698368;82;25831;-76
2021/05/20 01:18:46;;;;;;;13.78;10.25;;;;;;;10.53;78.66;100426.77;1662905;83;25690;-75
2021/05/20 01:21:15;;;;;;;12.20;9.40;;;;;;;10.51;78.68;100426.13;1642409;84;27304;-75
2021/05/20 01:23:42;;;;;;;12.75;9.33;;;;;;;10.49;78.63;100424.15;1698180;82;25629;-76
2021/05/20 01:26:09;;;;;;;13.00;9.63;;;;;;;10.46;78.73;100428.03;1654512;82;25676;-75
2021/05/20 01:28:36;;;;;;;14.65;10.95;;;;;;;10.46;79.08;100430.71;1621585;85;26474;-75
2021/05/20 01:31:04;;;;;;;12.43;10.20;;;;;;;10.43;79.18;100423.58;1638243;84;26409;-76
2021/05/20 01:33:31;;;;;;;14.43;10.75;;;;;;;10.39;79.26;100422.30;1698561;83;27421;-76
2021/05/20 01:35:58;;;;;;;17.67;10.60;;;;;;;10.35;79.24;100421.83;1683126;84;26421;-76
2021/05/20 01:38:43;;;;;;;12.30;10.40;;;;;;;10.33;79.15;100423.87;1639368;84;25818;-75
2021/05/20 01:40:59;;;;;;;14.60;10.03;;;;;;;10.30;78.89;100420.25;1630032;85;25947;-75
2021/05/20 01:43:27;;;;;;;12.53;10.58;;;;;;;10.27;78.71;100421.12;1690969;84;25724;-76
2021/05/20 01:45:58;;;;;;;14.25;11.10;;;;;;;10.23;78.69;100423.36;1679084;84;27390;-76
2021/05/20 01:48:33;;;;;;;14.10;10.85;;;;;;;10.19;78.72;100413.20;1624382;83;26546;-74
2021/05/20 01:51:10;;;;;;;15.55;11.20;;;;;;;10.18;78.78;100423.08;1674036;83;26480;-75
2021/05/20 01:53:41;;;;;;;13.50;10.38;;;;;;;10.16;78.85;100423.78;1626359;85;25846;-75
2021/05/20 01:56:09;;;;;;;15.85;11.50;;;;;;;10.16;78.81;100418.95;1673624;85;25860;-77
2021/05/20 01:58:38;;;;;;;16.35;11.57;;;;;;;10.15;78.93;100419.46;1638735;84;28079;-74
2021/05/20 02:01:06;;;;;;;15.70;10.98;;;;;;;10.13;79.05;100425.52;1603480;85;25776;-76
2021/05/20 02:03:33;;;;;;;16.85;11.93;;;;;;;10.12;79.14;100420.33;1689715;84;25778;-75
2021/05/20 02:06:03;;;;;;;14.58;10.82;;;;;;;10.09;79.34;100422.86;1682568;84;25755;-75
2021/05/20 02:08:37;;;;;;;13.78;11.15;;;;;;;10.07;79.43;100420.34;1661233;84;25767;-74
2021/05/20 02:11:06;;;;;;;14.05;11.00;;;;;;;10.07;79.64;100421.69;1627795;85;27350;-75
2021/05/20 02:13:34;;;;;;;15.83;11.70;;;;;;;10.05;79.65;100421.58;1672644;85;26436;-75
2021/05/20 02:16:01;;;;;;;14.75;10.93;;;;;;;10.05;79.64;100432.28;1684744;84;25639;-75
2021/05/20 02:18:28;;;;;;;14.80;11.10;;;;;;;10.03;79.58;100430.27;1625695;85;25768;-76
2021/05/20 02:20:56;;;;;;;14.13;11.05;;;;;;;10.03;79.42;100435.62;1664344;84;25615;-75
2021/05/20 02:23:23;;;;;;;15.03;11.63;;;;;;;9.99;79.40;100437.02;1688534;84;27504;-75
2021/05/20 02:25:50;;;;;;;13.58;11.28;;;;;;;9.95;79.47;100439.25;1648870;85;26413;-75
2021/05/20 02:28:17;;;;;;;15.38;10.80;;;;;;;9.94;79.65;100438.11;1620161;84;25726;-75
2021/05/20 02:30:44;;;;;;;13.00;10.43;;;;;;;9.88;79.84;100432.98;1637272;84;25738;-76
2021/05/20 02:33:11;;;;;;;15.25;10.95;;;;;;;9.83;79.88;100438.58;1669360;85;25640;-75
2021/05/20 02:35:38;;;;;;;15.23;11.20;;;;;;;9.75;79.79;100438.15;1687072;84;27516;-75
2021/05/20 02:38:05;;;;;;;13.98;10.30;;;;;;;9.72;79.84;100431.85;1648333;84;26269;-76
2021/05/20 02:40:34;;;;;;;13.50;10.43;;;;;;;9.69;79.93;100434.88;1606911;85;26593;-75
2021/05/20 02:43:02;;;;;;;13.60;9.98;;;;;;;9.67;79.90;100438.25;1690856;84;26318;-75
2021/05/20 02:45:29;;;;;;;17.45;10.90;;;;;;;9.61;79.95;100436.81;1685242;84;25678;-76
2021/05/20 02:47:56;;;;;;;14.20;10.78;;;;;;;9.55;79.99;100433.05;1663137;84;27393;-76
2021/05/20 02:50:25;;;;;;;15.03;10.95;;;;;;;9.51;80.14;100434.44;1620945;84;25697;-76
2021/05/20 02:52:52;;;;;;;14.28;10.95;;;;;;;9.48;80.17;100434.79;1665169;85;25752;-74
2021/05/20 02:55:22;;;;;;;14.53;11.80;;;;;;;9.47;80.31;100437.16;1687883;84;25831;-75
2021/05/20 02:57:53;;;;;;;13.32;10.35;;;;;;;9.49;80.30;100433.79;1603088;83;25873;-75
2021/05/20 03:00:21;;;;;;;15.93;11.50;;;;;;;9.49;80.27;100436.96;1638852;83;27370;-74
2021/05/20 03:02:50;;;;;;;14.30;11.63;;;;;;;9.49;80.32;100440.97;1699577;83;25533;-75
2021/05/20 03:05:18;;;;;;;13.35;9.95;;;;;;;9.51;80.33;100446.47;1671020;85;25738;-76
2021/05/20 03:07:46;;;;;;;13.80;10.68;;;;;;;9.54;80.28;100447.95;1591655;85;25794;-75
2021/05/20 03:10:14;;;;;;;15.53;11.97;;;;;;;9.55;80.13;100449.59;1618578;84;25989;-75
2021/05/20 03:12:41;;;;;;;15.08;11.40;;;;;;;9.56;79.98;100451.27;1647846;83;27470;-76
2021/05/20 03:15:09;;;;;;;12.90;10.23;;;;;;;9.60;79.84;100448.02;1673722;84;25848;-77
2021/05/20 03:17:36;;;;;;;19.23;11.97;;;;;;;9.62;79.79;100452.70;1635680;84;25743;-75
2021/05/20 03:20:06;;;;;;;15.83;11.83;;;;;;;9.65;79.77;100449.64;1647232;85;26297;-74
2021/05/20 03:22:33;;;;;;;14.45;11.18;;;;;;;9.69;79.82;100460.79;1679801;84;25896;-76
2021/05/20 03:25:00;;;;;;;17.17;10.85;;;;;;;9.68;79.78;100459.98;1686759;84;27592;-74
2021/05/20 03:27:27;;;;;;;14.47;11.10;;;;;;;9.68;79.86;100468.01;1636789;84;26031;-75
2021/05/20 03:29:54;;;;;;;13.13;10.60;;;;;;;9.70;79.94;100474.00;1628944;86;25777;-75
2021/05/20 03:32:21;;;;;;;15.80;10.35;;;;;;;9.69;79.88;100470.98;1643327;83;26444;-75
2021/05/20 03:34:48;;;;;;;14.38;11.53;;;;;;;9.68;79.85;100470.69;1670218;83;25315;-77
2021/05/20 03:37:15;;;;;;;19.00;10.72;;;;;;;9.70;79.90;100464.64;1630811;85;27592;-75
2021/05/20 03:39:43;;;;;;;13.28;10.15;;;;;;;9.77;80.01;100475.44;1597301;85;25832;-76
2021/05/20 03:42:10;;;;;;;12.88;10.63;;;;;;;9.82;80.01;100475.19;1660285;85;25734;-74
2021/05/20 03:44:37;;;;;;;16.37;12.25;;;;;;;9.82;79.87;100473.85;1681523;84;26457;-75
2021/05/20 03:47:04;;;;;;;15.40;10.48;;;;;;;9.85;79.92;100473.50;1644189;84;26581;-76
2021/05/20 03:49:31;;;;;;;13.50;9.83;;;;;;;9.96;80.11;100474.87;1621460;84;27410;-75
2021/05/20 03:51:59;;;;;;;14.55;10.95;;;;;;;10.10;80.13;100476.69;1688962;84;26542;-75
2021/05/20 03:54:26;;;;;;;11.80;9.70;;;;;;;10.23;80.10;100472.88;1656624;84;26138;-75
2021/05/20 03:56:53;;;;;;;14.40;10.00;;;;;;;10.29;79.85;100469.95;1624001;84;25765;-75
2021/05/20 03:59:20;;;;;;;12.15;9.63;;;;;;;10.32;79.71;100477.61;1641303;84;25791;-75
2021/05/20 04:01:47;;;;;;;13.38;9.05;;;;;;;10.31;79.42;100472.77;1667405;85;27541;-76
2021/05/20 04:04:15;;;;;;;14.23;9.30;;;;;;;10.27;79.24;100478.17;1670777;85;25904;-74
2021/05/20 04:06:42;;;;;;;12.18;9.30;;;;;;;10.28;79.39;100481.19;1645346;84;25838;-76
2021/05/20 04:09:09;;;;;;;14.73;8.80;;;;;;;10.29;79.33;100490.86;1643575;84;26580;-76
2021/05/20 04:11:36;;;;;;;12.70;9.45;;;;;;;10.26;78.93;100488.58;1672647;83;25863;-74
2021/05/20 04:14:04;;;;;;;11.18;9.35;;;;;;;10.29;79.17;100488.19;1686414;84;27537;-76
2021/05/20 04:16:31;;;;;;;10.65;8.53;;;;;;;10.24;78.89;100495.13;1642149;84;25693;-74
2021/05/20 04:18:58;;;;;;;12.45;8.98;;;;;;;10.24;79.06;100489.28;1665759;84;26337;-76
2021/05/20 04:21:25;;;;;;;10.78;8.88;;;;;;;10.23;78.92;100496.12;1679815;84;26359;-75
2021/05/20 04:23:52;;;;;;;10.25;8.35;;;;;;;10.24;78.94;100495.13;1645670;84;25776;-75
2021/05/20 04:26:19;;;;;;;12.93;8.15;;;;;;;10.23;78.63;100496.97;1619602;85;27539;-74
2021/05/20 04:28:48;;;;;;;10.48;8.18;;;;;;;10.26;78.69;100505.98;1695307;82;26369;-74
2021/05/20 04:31:16;;;;;;;12.25;8.65;;;;;;;10.28;78.78;100502.61;1664606;83;25774;-76
2021/05/20 04:33:43;;;;;;;12.00;9.20;;;;;;;10.30;78.54;100503.25;1621097;83;26357;-76
2021/05/20 04:36:10;;;;;;;11.53;8.93;;;;;;;10.34;78.43;100506.36;1655051;83;26186;-75
2021/05/20 04:38:37;;;;;;;12.13;8.40;;;;;;;10.38;78.57;100501.79;1689405;84;27594;-76
2021/05/20 04:41:05;;;;;;;11.57;7.30;;;;;;;10.42;77.96;100513.78;1665895;84;26410;-75
2021/05/20 04:43:32;;;;;;;8.90;7.42;;;;;;;10.43;77.62;100511.44;1633912;84;25692;-79
2021/05/20 04:45:59;;;;;;;8.25;6.87;;;;;;;10.45;77.57;100513.42;1662859;84;25745;-75
2021/05/20 04:48:27;;;;;;;12.13;7.62;;;;;;;10.50;77.52;100514.20;1690485;84;25707;-76
2021/05/20 04:50:56;;;;;;;13.45;8.55;;;;;;;10.54;77.58;100512.80;1659850;85;27496;-76
2021/05/20 04:53:24;;;;;;;12.55;7.05;;;;;;;10.58;77.42;100508.22;1642281;84;25732;-76
2021/05/20 04:55:51;;;;;;;12.63;7.72;;;;;;;10.61;77.34;100511.84;1662538;84;25669;-74
2021/05/20 04:58:19;;;;;;;13.10;8.60;;;;;;;10.68;77.05;100514.09;1684916;84;26387;-74
2021/05/20 05:00:47;;;;;;;11.93;7.70;;;;;;;10.72;76.78;100514.53;1665080;84;26462;-75
2021/05/20 05:03:15;;;;;;;12.35;7.37;;;;;;;10.78;76.96;100513.77;1635555;84;28029;-74
2021/05/20 05:05:42;;;;;;;8.53;7.05;;;;;;;10.82;76.46;100508.34;1663740;84;25779;-77
2021/05/20 05:08:10;;;;;;;9.58;6.60;;;;;;;10.88;76.48;100514.31;1668557;84;25696;-75
2021/05/20 05:10:37;;;;;;;12.28;7.33;;;;;;;10.92;76.31;100516.92;1695340;84;25747;-75
2021/05/20 05:13:04;;;;;;;11.60;7.45;;;;;;;10.97;76.00;100520.38;1628437;84;25718;-75
2021/05/20 05:15:31;;;;;;;10.53;7.35;;;;;;;11.03;75.76;100521.78;1672245;84;27464;-75
2021/05/20 05:17:58;;;;;;;9.23;7.03;;;;;;;11.11;75.67;100526.17;1674598;84;25728;-76
2021/05/20 05:20:25;;;;;;;8.68;6.78;;;;;;;11.20;75.53;100523.69;1683597;84;26672;-76
2021/05/20 05:22:52;;;;;;;10.88;7.08;;;;;;;11.26;74.94;100522.91;1645653;84;25762;-76
2021/05/20 05:25:19;;;;;;;9.25;6.42;;;;;;;11.33;74.93;100533.19;1659180;84;25763;-76
2021/05/20 05:27:46;;;;;;;10.80;6.40;;;;;;;11.38;74.04;100528.06;1664293;84;27479;-75
2021/05/20 05:30:15;;;;;;;7.75;5.87;;;;;;;11.43;74.88;100525.13;1660673;84;25673;-75
2021/05/20 05:32:42;;;;;;;10.88;6.12;;;;;;;11.54;73.86;100531.82;1640110;85;26444;-74
2021/05/20 05:35:10;;;;;;;7.83;5.60;;;;;;;11.59;74.57;100527.52;1623114;85;25785;-76
2021/05/20 05:37:36;;;;;;;7.70;5.67;;;;;;;11.65;73.74;100536.12;1668826;84;25900;-74
2021/05/20 05:40:07;;;;;;;8.28;5.95;;;;;;;11.73;73.84;100530.33;1641979;85;27997;-75
2021/05/20 05:42:34;;;;;;;7.25;5.40;;;;;;;11.84;74.19;100538.69;1640127;84;25716;-74
2021/05/20 05:45:01;;;;;;;7.25;5.70;;;;;;;11.93;72.82;100541.50;1629264;85;26029;-76
2021/05/20 05:47:28;;;;;;;7.30;5.35;;;;;;;11.99;72.59;100542.59;1680709;84;25948;-75
2021/05/20 05:49:55;;;;;;;6.53;5.22;;;;;;;12.09;72.55;100543.05;1663507;82;26349;-75
2021/05/20 05:52:23;;;;;;;5.95;5.30;;;;;;;12.19;73.21;100543.02;1661373;84;27460;-74
2021/05/20 05:54:52;;;;;;;4.83;4.33;;;;;;;12.30;72.65;100544.30;1660821;84;26455;-76
2021/05/20 05:57:19;;;;;;;5.87;4.65;;;;;;;12.43;72.28;100541.69;1667442;85;25759;-76
2021/05/20 05:59:48;;;;;;;5.12;4.62;;;;;;;12.52;71.79;100542.34;1671423;83;25795;-75
2021/05/20 06:02:18;;;;;;;8.40;4.30;;;;;;;12.59;71.78;100542.70;1598211;85;25684;-75
2021/05/20 06:04:50;;;;;;;5.13;4.20;;;;;;;12.70;71.53;100545.31;1702303;83;27433;-76
2021/05/20 06:07:18;;;;;;;5.30;4.03;;;;;;;12.77;71.49;100544.30;1686474;84;26316;-74
2021/05/20 06:09:46;;;;;;;5.05;4.20;;;;;;;12.82;69.56;100543.19;1666797;84;25999;-75
2021/05/20 06:12:13;;;;;;;6.67;4.05;;;;;;;12.88;69.97;100545.56;1605985;85;25804;-78
2021/05/20 06:14:40;;;;;;;4.67;3.77;;;;;;;12.97;69.75;100538.98;1642731;84;26030;-75
2021/05/20 06:17:08;;;;;;;6.87;4.45;;;;;;;13.10;69.87;100549.28;1662666;84;28444;-75
2021/05/20 06:19:36;;;;;;;6.62;4.17;;;;;;;13.20;69.50;100542.66;1682988;84;25752;-77
2021/05/20 06:22:03;;;;;;;6.70;4.25;;;;;;;13.26;68.70;100545.36;1614732;85;25882;-75
2021/05/20 06:24:30;;;;;;;5.15;4.00;;;;;;;13.32;69.13;100539.69;1650740;84;26435;-76
2021/05/20 06:26:57;;;;;;;4.08;3.42;;;;;;;13.34;67.73;100541.66;1693751;84;25857;-75
2021/05/20 06:29:24;;;;;;;4.62;3.80;;;;;;;13.36;67.37;100544.97;1671417;84;27448;-75
2021/05/20 06:31:51;;;;;;;5.85;4.03;;;;;;;13.36;67.12;100549.00;1659623;84;25699;-75
2021/05/20 06:34:18;;;;;;;6.17;3.90;;;;;;;13.42;67.29;100544.97;1644187;84;25718;-75
2021/05/20 06:36:46;;;;;;;4.22;2.90;;;;;;;13.53;67.38;100551.59;1670315;83;25812;-76
2021/05/20 06:39:13;;;;;;;6.00;3.30;;;;;;;13.65;68.00;100539.16;1678072;84;25675;-77
2021/05/20 06:41:40;;;;;;;4.10;3.25;;;;;;;13.79;67.39;100540.83;1673413;85;28020;-74
2021/05/20 06:44:08;;;;;;;5.60;4.00;;;;;;;13.87;64.96;100548.67;1649033;84;25711;-74
2021/05/20 06:46:36;;;;;;;4.95;3.12;;;;;;;13.82;66.03;100537.70;1683631;84;25811;-74
2021/05/20 06:49:04;;;;;;;4.35;2.90;;;;;;;13.91;64.86;100543.18;1685706;84;26556;-77
2021/05/20 06:51:33;;;;;;;5.12;3.60;;;;;;;13.94;65.17;100540.08;1621710;85;26449;-75
2021/05/20 06:54:00;;;;;;;4.53;3.25;;;;;;;13.97;65.03;100540.98;1650278;83;27612;-75
2021/05/20 06:56:29;;;;;;;3.98;2.55;;;;;;;14.00;64.74;100537.05;1667802;84;25732;-75
2021/05/20 07:01:45;;;;;;;3.08;2.60;;;;;;;14.10;62.92;100542.31;1632960;84;25766;-75
2021/05/20 07:04:10;;;;;;;3.15;2.80;;;;;;;14.11;63.26;100551.23;1667496;85;26390;-76
2021/05/20 07:06:37;;;;;;;5.60;3.40;;;;;;;14.14;64.50;100544.89;1648178;85;27977;-74
2021/05/20 07:09:04;;;;;;;4.42;2.90;;;;;;;14.23;64.78;100549.02;1676788;84;26023;-75
2021/05/20 07:11:32;;;;;;;4.08;3.08;;;;;;;14.28;62.14;100547.88;1629686;84;25685;-76
2021/05/20 07:13:59;;;;;;;4.42;2.65;;;;;;;14.28;62.79;100538.45;1637491;85;25916;-74
2021/05/20 07:16:26;;;;;;;4.12;2.85;;;;;;;14.34;63.51;100547.56;1695004;84;25741;-75
2021/05/20 07:18:53;;;;;;;4.87;3.60;;;;;;;14.47;64.21;100546.17;1660985;84;27266;-74
2021/05/20 07:21:21;;;;;;;4.97;2.75;;;;;;;14.62;64.09;100544.04;1645216;84;25727;-75
2021/05/20 07:23:48;;;;;;;3.35;2.77;;;;;;;14.67;62.05;100547.73;1626319;85;25860;-76
2021/05/20 07:26:15;;;;;;;4.00;2.87;;;;;;;14.65;60.76;100544.42;1644908;85;25829;-75
2021/05/20 07:28:42;;;;;;;3.33;2.65;;;;;;;14.62;61.00;100543.53;1668396;84;26394;-75
2021/05/20 07:31:09;;;;;;;5.75;3.10;;;;;;;14.66;61.11;100550.14;1645084;84;27065;-74
2021/05/20 07:33:38;;;;;;;4.55;3.15;;;;;;;14.77;63.07;100552.69;1627865;85;26453;-76
2021/05/20 07:36:06;;;;;;;4.37;3.00;;;;;;;14.88;62.38;100555.22;1687728;84;26281;-77
2021/05/20 07:38:33;;;;;;;3.77;2.80;;;;;;;14.89;62.63;100559.55;1658630;83;26373;-74
2021/05/20 07:41:00;;;;;;;5.75;2.90;;;;;;;14.93;59.81;100567.52;1636290;83;26800;-75
2021/05/20 07:43:27;;;;;;;7.60;3.15;;;;;;;14.83;59.40;100553.16;1640960;84;27421;-75
2021/05/20 07:45:54;;;;;;;4.00;2.95;;;;;;;14.83;60.94;100557.21;1683712;83;26312;-75
2021/05/20 07:48:21;;;;;;;3.27;2.58;;;;;;;14.95;61.49;100553.33;1663261;84;26145;-76
2021/05/20 07:50:48;;;;;;;3.52;2.80;;;;;;;15.05;58.50;100552.32;1626564;85;26307;-76
2021/05/20 07:53:15;;;;;;;3.67;2.80;;;;;;;15.09;59.50;100553.54;1684643;83;25884;-75
2021/05/20 07:55:42;;;;;;;2.77;2.50;;;;;;;15.12;60.13;100563.91;1685779;83;27529;-74
2021/05/20 07:58:09;;;;;;;3.20;2.58;;;;;;;15.02;57.80;100559.48;1630660;85;25756;-75
2021/05/20 08:00:36;;;;;;;2.90;2.33;;;;;;;15.05;60.42;100557.72;1618420;83;26159;-74
2021/05/20 08:03:29;;;;;;;2.50;2.30;;;;;;;15.21;61.43;100553.97;1668574;83;26524;-76
2021/05/20 08:05:40;;;;;;;3.65;2.70;;;;;;;15.34;58.65;100557.09;1670817;84;26192;-77
2021/05/20 08:08:20;;;;;;;3.02;2.27;;;;;;;15.43;59.62;100559.36;1626730;85;28195;-76
2021/05/20 08:13:19;;;;;;;4.55;2.83;;;;;;;15.26;58.12;100551.45;1686157;84;25329;-77
2021/05/20 08:15:46;;;;;;;3.37;2.08;;;;;;;15.30;58.35;100554.53;1650336;85;25821;-75
2021/05/20 08:18:14;;;;;;;1.90;1.70;;;;;;;15.41;57.82;100546.58;1624544;84;26363;-75
2021/05/20 08:20:41;;;;;;;6.42;2.10;;;;;;;15.33;56.17;100555.46;1623049;84;28088;-76
2021/05/20 08:23:08;;;;;;;2.20;2.00;;;;;;;15.32;57.24;100547.88;1669210;85;25850;-76
2021/05/20 08:25:35;;;;;;;6.17;1.92;;;;;;;15.42;56.63;100552.78;1663314;84;25762;-76
2021/05/20 08:28:02;;;;;;;4.30;1.45;;;;;;;15.52;55.33;100544.23;1598416;85;26387;-74
2021/05/20 08:30:29;;;;;;;2.67;1.60;;;;;;;15.64;53.51;100550.05;1635954;84;26569;-76
2021/05/20 08:32:56;;;;;;;1.65;1.55;;;;;;;15.49;52.84;100544.14;1669825;84;27431;-76
2021/05/20 08:35:24;;;;;;;2.37;1.65;;;;;;;15.56;54.95;100544.09;1688777;83;25785;-77
2021/05/20 08:37:52;;;;;;;3.55;1.82;;;;;;;15.63;55.12;100541.63;1599383;84;26555;-76
2021/05/20 08:40:19;;;;;;;2.22;2.02;;;;;;;15.63;55.08;100545.67;1639486;84;25824;-75
2021/05/20 08:42:46;;;;;;;2.58;1.95;;;;;;;15.61;53.96;100552.37;1694531;83;25715;-77
2021/05/20 08:45:26;;;;;;;3.20;2.20;;;;;;;15.61;55.38;100538.87;1687794;83;27460;-75
2021/05/20 08:47:56;;;;;;;2.07;1.70;;;;;;;15.64;54.31;100541.11;1634898;84;26487;-75
2021/05/20 08:50:27;;;;;;;1.25;1.15;;;;;;;15.65;53.28;100538.21;1640900;84;25753;-75
2021/05/20 08:52:55;;;;;;;4.03;1.60;;;;;;;15.53;51.70;100548.57;1666192;85;26543;-75
2021/05/20 08:55:29;;;;;;;2.87;1.90;;;;;;;15.43;52.34;100548.56;1684269;84;25939;-76
2021/05/20 08:57:59;;;;;;;2.50;1.70;;;;;;;15.43;52.84;100547.21;1680210;84;28178;-76
2021/05/20 09:00:28;;;;;;;2.83;1.65;;;;;;;15.58;52.58;100546.88;1620934;84;25828;-75
2021/05/20 09:03:11;;;;;;;2.85;1.40;;;;;;;15.64;53.54;100548.69;1672138;85;25876;-77
2021/05/20 09:05:39;;;;;;;3.52;1.62;;;;;;;15.77;52.96;100549.09;1681591;84;26399;-76
2021/05/20 09:08:14;;;;;;;2.95;1.70;;;;;;;15.86;53.69;100538.33;1646571;84;25625;-76
2021/05/20 09:10:44;;;;;;;1.42;0.90;;;;;;;16.04;51.95;100536.47;1628389;85;27391;-76
2021/05/20 09:13:18;;;;;;;3.25;1.22;;;;;;;16.04;51.10;100536.47;1687736;84;25722;-76
2021/05/20 09:15:51;;;;;;;1.70;1.50;;;;;;;16.12;50.76;100540.77;1669745;85;25964;-75
2021/05/20 09:18:24;;;;;;;1.60;1.30;;;;;;;16.12;50.39;100537.52;1612460;84;26495;-76
2021/05/20 09:20:58;;;;;;;1.75;1.30;;;;;;;16.15;52.12;100526.27;1662164;84;25837;-75
2021/05/20 09:23:33;;;;;;;1.87;1.10;;;;;;;16.24;49.77;100530.85;1651873;84;27435;-76
2021/05/20 09:26:11;;;;;;;1.70;1.25;;;;;;;16.24;49.58;100520.04;1676691;84;25771;-75
2021/05/20 09:28:47;;;;;;;4.27;1.80;;;;;;;16.10;49.73;100536.11;1637280;85;26388;-74
2021/05/20 09:31:22;;;;;;;1.62;1.42;;;;;;;16.19;51.55;100528.82;1640128;84;25913;-75
2021/05/20 09:33:53;;;;;;;3.77;1.57;;;;;;;16.34;49.90;100528.98;1655672;85;25747;-75
2021/05/20 09:36:23;;;;;;;1.52;1.00;;;;;;;16.28;51.03;100525.30;1689177;84;27986;-75
2021/05/20 09:39:11;;;;;;;1.83;1.17;;;;;;;16.17;49.48;100531.44;1613808;84;25784;-74
2021/05/20 09:41:39;;;;;;;1.47;1.25;;;;;;;16.02;50.24;100527.76;1633306;84;25771;-74
2021/05/20 09:44:32;;;;;;;3.10;1.70;;;;;;;16.07;50.05;100531.14;1687804;84;26484;-74
2021/05/20 09:47:03;;;;;;;1.20;1.07;;;;;;;16.18;51.18;100519.59;1687790;84;25726;-74
2021/05/20 09:49:30;;;;;;;2.77;1.57;;;;;;;16.40;51.08;100528.08;1635123;85;27457;-75
2021/05/20 09:52:21;;;;;;;2.05;1.10;;;;;;;16.47;49.67;100528.80;1631871;84;25745;-75
2021/05/20 09:54:48;;;;;;;3.02;1.25;;;;;;;16.49;49.97;100530.23;1664159;85;25807;-74
2021/05/20 09:57:34;;;;;;;2.90;1.20;;;;;;;16.48;49.70;100530.47;1692269;84;26470;-75
2021/05/20 10:00:11;;;;;;;2.55;1.25;;;;;;;16.47;50.01;100533.69;1629490;85;26155;-75
2021/05/20 10:02:39;;;;;;;1.17;0.82;;;;;;;16.48;50.59;100538.58;1639103;84;28573;-75
2021/05/20 10:05:35;;;;;;;1.07;0.98;;;;;;;16.60;48.87;100532.73;1671904;85;25664;-75
2021/05/20 10:08:08;;;;;;;1.60;1.50;;;;;;;16.62;49.28;100536.03;1684249;84;25607;-74
2021/05/20 10:10:39;;;;;;;3.25;1.50;;;;;;;16.65;50.19;100537.77;1624500;84;26608;-73
2021/05/20 10:13:11;;;;;;;1.67;1.52;;;;;;;16.79;49.69;100528.42;1619295;85;25882;-74
2021/05/20 10:15:40;;;;;;;2.37;1.20;;;;;;;16.85;50.54;100533.46;1689724;84;27408;-74
2021/05/20 10:18:21;;;;;;;2.20;1.40;;;;;;;16.79;48.84;100535.19;1686136;84;25723;-75
2021/05/20 10:20:52;;;;;;;1.10;1.05;;;;;;;16.71;46.25;100530.62;1640702;84;25790;-75
2021/05/20 10:23:25;;;;;;;2.52;1.37;;;;;;;16.77;49.16;100531.89;1607296;85;26409;-75
2021/05/20 10:25:54;;;;;;;1.47;1.30;;;;;;;16.76;48.27;100534.83;1682375;84;26311;-74
2021/05/20 10:28:25;;;;;;;2.10;1.20;;;;;;;16.74;47.78;100536.94;1683958;84;27512;-75
2021/05/20 10:30:54;;;;;;;1.22;0.98;;;;;;;16.78;45.83;100541.66;1625227;85;25662;-74
2021/05/20 10:33:27;;;;;;;1.07;0.80;;;;;;;16.81;46.40;100517.36;1632361;84;25764;-74
2021/05/20 10:35:57;;;;;;;2.80;1.35;;;;;;;16.96;47.68;100527.25;1688538;84;26756;-75
2021/05/20 10:38:35;;;;;;;1.77;1.23;;;;;;;17.17;49.15;100531.33;1690800;84;25804;-75
2021/05/20 10:41:25;;;;;;;1.60;0.85;;;;;;;17.31;48.37;100526.00;1640303;85;27427;-74
2021/05/20 10:44:09;;;;;;;0.87;0.87;;;;;;;17.43;46.03;100526.31;1670723;83;26407;-75
2021/05/20 10:47:02;;;;;;;1.87;1.07;;;;;;;17.29;45.07;100523.53;1687853;83;25743;-75
2021/05/20 10:49:53;;;;;;;1.80;1.07;;;;;;;17.18;45.07;100528.39;1684272;84;26411;-77
2021/05/20 10:52:38;;;;;;;;;;;;;;;17.19;48.24;100518.39;1657603;84;26350;-75
2021/05/20 10:55:09;;;;;;;1.20;1.10;;;;;;;17.38;49.45;100522.67;1636567;83;27324;-74
2021/05/20 10:58:03;;;;;;;3.58;1.35;;;;;;;17.47;46.97;100524.79;1679677;83;26389;-75
2021/05/20 11:00:41;;;;;;;1.40;1.20;;;;;;;17.55;47.07;100525.86;1659928;84;26376;-75
2021/05/20 11:03:09;;;;;;;4.17;1.15;;;;;;;17.64;47.41;100528.49;1668498;84;26044;-74
2021/05/20 11:05:48;;;;;;;2.37;1.27;;;;;;;17.64;46.67;100523.07;1649477;84;26011;-74
2021/05/20 11:08:38;;;;;;;1.92;1.10;;;;;;;17.45;45.31;100527.45;1679181;84;27596;-75
2021/05/20 11:11:09;;;;;;;0.93;0.93;;;;;;;17.44;46.93;100529.33;1667053;85;26365;-75
2021/05/20 11:13:40;;;;;;;1.85;1.42;;;;;;;17.57;45.29;100524.26;1644477;84;25807;-74
2021/05/20 11:16:35;;;;;;;1.57;1.12;;;;;;;17.57;45.29;100524.26;1659563;84;26251;-74
2021/05/20 11:19:25;;;;;;;1.82;0.82;;;;;;;17.66;44.35;100528.28;1682375;84;25715;-74
2021/05/20 11:22:02;;;;;;;2.40;1.02;;;;;;;17.60;45.90;100517.00;1661242;84;28084;-74
2021/05/20 11:24:33;;;;;;;1.52;1.00;;;;;;;17.72;46.59;100528.69;1665476;85;25827;-75
2021/05/20 11:27:02;;;;;;;;;;;;;;;17.71;47.16;100533.28;1661164;84;25767;-75
2021/05/20 11:29:32;;;;;;;2.30;0.70;;;;;;;17.64;45.59;100533.11;1659780;84;25869;-75
2021/05/20 11:32:12;;;;;;;3.25;1.40;;;;;;;17.63;46.47;100536.86;1660460;84;26068;-75
2021/05/20 11:37:32;;;;;;;1.20;0.80;;;;;;;17.63;46.61;100539.57;1662224;84;25716;-75
2021/05/20 11:39:56;;;;;;;1.40;1.20;;;;;;;17.63;46.61;100532.80;1631793;83;26083;-74